Time;durP1;ratioP1;P1;durP2;ratioP2;P2;SDS_P1;SDS_P2;PMS_P1;PMS_P2;Temp;Humidity;BMP_temperature;BMP_pressure;BME280_temperature;BME280_humidity;BME280_pressure;Samples;Min_cycle;Max_cycle;Signal;HPM_P1;HPM_P2
2021/01/13 00:01:45;;;;;;;27.83;11.67;;;;;;;-0.65;73.09;99817.73;121628;1140;104342;-74
2021/01/13 00:04:14;;;;;;;33.97;13.57;;;;;;;-0.65;72.69;99809.11;121673;1140;104499;-74
2021/01/13 00:06:43;;;;;;;25.03;10.80;;;;;;;-0.68;73.27;99820.09;121707;1140;104348;-73
2021/01/13 00:09:13;;;;;;;26.87;10.83;;;;;;;-0.73;72.91;99819.77;121734;1141;104435;-73
2021/01/13 00:11:44;;;;;;;26.13;11.20;;;;;;;-0.75;72.94;99831.66;121749;1141;104355;-74
2021/01/13 00:14:13;;;;;;;25.57;11.33;;;;;;;-0.77;73.70;99832.33;121589;1141;104341;-75
2021/01/13 00:16:41;;;;;;;26.73;11.60;;;;;;;-0.78;72.71;99831.45;121601;1141;104334;-74
2021/01/13 00:19:10;;;;;;;26.43;10.43;;;;;;;-0.78;72.92;99823.72;121685;1141;104339;-74
2021/01/13 00:21:39;;;;;;;26.27;10.87;;;;;;;-0.81;73.13;99820.93;121689;1141;104346;-75
2021/01/13 00:24:09;;;;;;;27.90;12.40;;;;;;;-0.76;73.50;99822.14;121672;1141;104442;-75
2021/01/13 00:26:38;;;;;;;27.57;11.33;;;;;;;-0.70;73.01;99823.34;121685;1141;104330;-75
2021/01/13 00:29:08;;;;;;;31.70;13.00;;;;;;;-0.67;73.15;99816.73;121709;1141;104385;-72
2021/01/13 00:31:37;;;;;;;27.23;12.47;;;;;;;-0.63;73.08;99802.37;121458;1141;104450;-73
2021/01/13 00:34:07;;;;;;;29.20;12.43;;;;;;;-0.57;73.21;99800.22;121726;1141;104331;-73
2021/01/13 00:36:36;;;;;;;28.23;12.03;;;;;;;-0.53;73.01;99797.08;121742;1140;104379;-73
2021/01/13 00:39:06;;;;;;;27.13;12.23;;;;;;;-0.50;73.47;99786.05;121743;1141;104337;-73
2021/01/13 00:41:38;;;;;;;24.47;11.13;;;;;;;-0.55;73.10;99784.08;121684;1141;104441;-73
2021/01/13 00:44:08;;;;;;;31.80;12.80;;;;;;;-0.62;72.55;99786.13;121637;1140;104406;-73
2021/01/13 00:46:40;;;;;;;27.93;10.93;;;;;;;-0.69;72.50;99771.91;121648;1141;104436;-72
2021/01/13 00:49:10;;;;;;;25.30;10.73;;;;;;;-0.73;73.36;99759.63;121666;1140;104398;-73
2021/01/13 00:51:41;;;;;;;28.00;13.23;;;;;;;-0.75;72.99;99754.38;121725;1141;104343;-73
2021/01/13 00:54:12;;;;;;;30.03;12.73;;;;;;;-0.75;72.86;99743.16;121685;1141;104371;-73
2021/01/13 00:56:45;;;;;;;32.60;14.03;;;;;;;-0.76;73.24;99746.54;121744;1140;104392;-73
2021/01/13 00:59:15;;;;;;;26.82;11.35;;;;;;;-0.78;73.12;99738.70;121746;1141;104375;-73
2021/01/13 01:01:45;;;;;;;25.47;11.40;;;;;;;-0.81;73.24;99732.42;121722;1141;104340;-73
2021/01/13 01:04:14;;;;;;;28.93;12.23;;;;;;;-0.87;72.67;99732.92;121682;1141;104368;-74
2021/01/13 01:06:46;;;;;;;30.17;13.83;;;;;;;-0.90;73.17;99732.71;121678;1141;104339;-76
2021/01/13 01:09:16;;;;;;;30.60;13.03;;;;;;;-0.91;73.02;99730.91;121487;1141;104436;-74
2021/01/13 01:11:45;;;;;;;32.43;14.17;;;;;;;-0.94;73.05;99723.86;121722;1141;104444;-73
2021/01/13 01:14:13;;;;;;;31.47;13.57;;;;;;;-0.95;72.70;99719.52;121745;1141;104511;-73
2021/01/13 01:16:43;;;;;;;30.37;12.27;;;;;;;-0.95;73.03;99714.37;121435;1141;104512;-74
2021/01/13 01:19:14;;;;;;;34.10;13.10;;;;;;;-0.92;72.72;99718.81;121668;1141;104393;-73
2021/01/13 01:21:44;;;;;;;26.87;11.37;;;;;;;-0.92;72.67;99713.66;121725;1141;104341;-74
2021/01/13 01:24:13;;;;;;;27.83;12.10;;;;;;;-0.95;72.75;99708.30;121759;1141;104348;-72
2021/01/13 01:26:48;;;;;;;28.40;10.87;;;;;;;-0.95;73.84;99704.06;121721;1141;104345;-73
2021/01/13 01:29:20;;;;;;;33.03;14.23;;;;;;;-0.96;73.74;99696.23;121752;1141;104464;-73
2021/01/13 01:31:51;;;;;;;31.67;11.87;;;;;;;-0.93;73.29;99680.98;121682;1141;104338;-74
2021/01/13 01:34:20;;;;;;;34.03;14.83;;;;;;;-0.95;72.83;99677.39;121780;1141;104464;-73
2021/01/13 01:36:54;;;;;;;33.03;12.40;;;;;;;-0.93;73.36;99680.98;121731;1141;104436;-75
2021/01/13 01:39:25;;;;;;;27.80;11.60;;;;;;;-0.93;72.85;99675.84;121734;1141;104343;-73
2021/01/13 01:41:56;;;;;;;29.27;12.67;;;;;;;-0.99;73.06;99681.45;121698;1141;104342;-73
2021/01/13 01:44:26;;;;;;;30.80;12.27;;;;;;;-1.05;72.82;99681.03;121696;1141;104344;-72
2021/01/13 01:47:04;;;;;;;32.63;12.67;;;;;;;-1.05;72.73;99680.16;121452;1141;104350;-72
2021/01/13 01:49:33;;;;;;;32.23;14.07;;;;;;;-1.05;73.34;99681.03;121723;1141;104611;-74
2021/01/13 01:52:12;;;;;;;29.70;12.97;;;;;;;-0.98;73.59;99672.03;121759;1141;105037;-73
2021/01/13 01:54:50;;;;;;;31.33;12.80;;;;;;;-0.97;73.43;99687.59;121721;1140;104342;-73
2021/01/13 01:57:24;;;;;;;30.57;11.93;;;;;;;-0.99;73.07;99681.45;121706;1140;104396;-73
2021/01/13 02:00:01;;;;;;;28.63;12.20;;;;;;;-1.02;73.12;99685.51;121719;1141;104463;-73
2021/01/13 02:02:56;;;;;;;28.27;12.13;;;;;;;-1.05;72.67;99680.16;121749;1140;104328;-73
2021/01/13 02:05:26;;;;;;;27.43;12.00;;;;;;;-1.09;73.30;99677.37;121733;1141;104527;-73
2021/01/13 02:08:01;;;;;;;24.57;10.30;;;;;;;-1.10;72.66;99683.30;121720;1141;104499;-73
2021/01/13 02:10:30;;;;;;;29.80;13.40;;;;;;;-1.11;73.02;99683.19;121704;1140;104337;-73
2021/01/13 02:13:07;;;;;;;29.27;14.00;;;;;;;-1.11;73.38;99691.83;121648;1141;104333;-75
2021/01/13 02:15:37;;;;;;;33.87;15.07;;;;;;;-1.12;73.20;99687.45;121767;1141;104713;-74
2021/01/13 02:18:09;;;;;;;27.27;12.30;;;;;;;-1.07;73.27;99692.03;121728;1141;104531;-74
2021/01/13 02:20:40;;;;;;;30.90;13.50;;;;;;;-1.10;73.46;99687.56;121724;1141;104483;-75
2021/01/13 02:23:19;;;;;;;32.73;14.23;;;;;;;-1.07;73.32;99681.73;121668;1140;104343;-73
2021/01/13 02:26:14;;;;;;;31.83;15.27;;;;;;;-1.04;73.29;99676.77;121706;1141;104339;-74
2021/01/13 02:28:56;;;;;;;33.30;15.38;;;;;;;-0.95;73.92;99677.39;121732;1141;104975;-73
2021/01/13 02:31:47;;;;;;;31.93;13.33;;;;;;;-0.94;73.20;99667.20;121689;1141;104337;-73
2021/01/13 02:34:42;;;;;;;33.73;14.53;;;;;;;-0.90;72.93;99668.32;121471;1141;104489;-73
2021/01/13 02:37:39;;;;;;;35.03;14.17;;;;;;;-0.82;73.04;99667.14;121687;1141;104357;-73
2021/01/13 02:40:16;;;;;;;33.23;14.53;;;;;;;-0.72;73.43;99660.92;121417;1141;104400;-73
2021/01/13 02:43:00;;;;;;;29.93;14.53;;;;;;;-0.65;73.26;99654.52;121730;1141;104336;-73
2021/01/13 02:45:31;;;;;;;29.20;14.37;;;;;;;-0.65;73.43;99650.24;121739;1141;104342;-73
2021/01/13 02:48:09;;;;;;;33.73;14.90;;;;;;;-0.69;73.60;99643.09;121742;1140;104596;-73
2021/01/13 02:50:42;;;;;;;31.17;14.27;;;;;;;-0.68;73.27;99647.46;121693;1141;102993;-73
2021/01/13 02:53:49;;;;;;;32.20;14.90;;;;;;;-0.70;72.77;99646.48;121740;1140;104336;-73
2021/01/13 02:56:41;;;;;;;36.27;15.00;;;;;;;-0.80;73.04;99636.34;121425;1141;105365;-73
2021/01/13 02:59:15;;;;;;;31.07;14.63;;;;;;;-0.86;73.16;99634.23;121452;1141;104380;-74
2021/01/13 03:01:46;;;;;;;33.27;16.13;;;;;;;-0.83;73.72;99629.28;121775;1141;104335;-75
2021/01/13 03:04:16;;;;;;;34.13;14.80;;;;;;;-0.79;73.88;99627.83;121681;1140;104316;-74
2021/01/13 03:06:47;;;;;;;30.27;13.53;;;;;;;-0.81;72.51;99630.30;121675;1141;104342;-75
2021/01/13 03:09:17;;;;;;;32.00;13.90;;;;;;;-0.88;73.06;99628.09;121689;1141;104531;-74
2021/01/13 03:11:46;;;;;;;30.70;13.80;;;;;;;-0.92;73.12;99626.09;121718;1141;104335;-72
2021/01/13 03:14:18;;;;;;;34.37;14.67;;;;;;;-0.98;72.81;99621.45;121416;1141;104620;-73
2021/01/13 03:17:04;;;;;;;33.80;14.23;;;;;;;-0.98;72.85;99626.59;121704;1141;104451;-72
2021/01/13 03:19:57;;;;;;;31.67;14.37;;;;;;;-0.99;72.67;99621.34;121691;1140;104836;-72
2021/01/13 03:22:32;;;;;;;30.03;13.73;;;;;;;-1.01;73.31;99616.09;121651;1141;104450;-73
2021/01/13 03:25:06;;;;;;;36.63;15.50;;;;;;;-1.00;73.89;99611.81;121670;1141;104330;-74
2021/01/13 03:27:41;;;;;;;33.20;13.57;;;;;;;-0.94;73.37;99612.23;121665;1141;104344;-75
2021/01/13 03:30:13;;;;;;;28.30;12.80;;;;;;;-0.91;73.42;99617.59;121658;1141;104370;-75
2021/01/13 03:33:08;;;;;;;34.87;16.33;;;;;;;-0.90;73.95;99619.38;121730;1141;104345;-74
2021/01/13 03:35:41;;;;;;;27.73;12.13;;;;;;;-0.86;73.10;99621.35;121722;1141;104442;-74
2021/01/13 03:38:16;;;;;;;32.90;15.60;;;;;;;-0.83;73.01;99625.83;121712;1141;104432;-73
2021/01/13 03:40:47;;;;;;;31.97;14.67;;;;;;;-0.83;72.82;99637.02;121731;1141;104340;-73
2021/01/13 03:43:20;;;;;;;32.97;14.63;;;;;;;-0.79;73.37;99633.86;121752;1141;104449;-74
2021/01/13 03:45:52;;;;;;;33.37;15.47;;;;;;;-0.80;72.59;99631.19;121720;1141;104470;-74
2021/01/13 03:48:44;;;;;;;34.97;15.63;;;;;;;-0.79;73.45;99623.55;121682;1141;104329;-73
2021/01/13 03:51:40;;;;;;;39.57;17.43;;;;;;;-0.79;72.97;99602.95;121687;1141;104357;-74
2021/01/13 03:54:11;;;;;;;38.27;18.23;;;;;;;-0.81;72.97;99601.05;121697;1140;104348;-74
2021/01/13 03:56:59;;;;;;;42.10;19.43;;;;;;;-0.87;73.40;99598.06;121696;1141;104531;-73
2021/01/13 03:59:44;;;;;;;38.10;16.90;;;;;;;-0.91;72.87;99607.28;121747;1141;104431;-74
2021/01/13 04:02:23;;;;;;;33.03;14.73;;;;;;;-0.98;72.92;99599.92;121741;1140;104343;-74
2021/01/13 04:05:12;;;;;;;35.67;15.53;;;;;;;-1.01;72.66;99594.57;121735;1141;104386;-73
2021/01/13 04:07:41;;;;;;;30.90;13.07;;;;;;;-1.01;73.07;99597.14;121744;1141;104367;-75
2021/01/13 04:10:14;;;;;;;31.47;14.13;;;;;;;-1.00;73.26;99596.37;121695;1141;104374;-76
2021/01/13 04:12:58;;;;;;;35.50;15.13;;;;;;;-1.01;73.21;99586.84;121578;1141;104423;-74
2021/01/13 04:15:39;;;;;;;37.45;15.50;;;;;;;-1.06;72.91;99586.57;121675;1140;104364;-72
2021/01/13 04:18:11;;;;;;;33.03;15.20;;;;;;;-1.05;73.12;99593.48;121720;1139;104404;-74
2021/01/13 04:20:40;;;;;;;37.27;16.70;;;;;;;-0.98;73.02;99580.23;121671;1141;104975;-74
2021/01/13 04:23:10;;;;;;;38.03;16.87;;;;;;;-0.94;73.14;99583.90;121617;1141;104368;-74
2021/01/13 04:25:39;;;;;;;42.27;19.10;;;;;;;-0.91;73.50;99589.25;121697;1140;104345;-73
2021/01/13 04:28:09;;;;;;;37.93;16.50;;;;;;;-0.94;72.80;99587.36;121460;1141;104356;-73
2021/01/13 04:30:40;;;;;;;37.93;18.53;;;;;;;-0.95;73.36;99585.59;121718;1140;104796;-74
2021/01/13 04:33:11;;;;;;;43.33;18.93;;;;;;;-0.96;73.46;99596.67;121720;1140;104341;-74
2021/01/13 04:35:41;;;;;;;38.63;18.43;;;;;;;-0.96;73.02;99606.09;121276;1141;104349;-76
2021/01/13 04:38:16;;;;;;;40.47;18.40;;;;;;;-0.99;73.54;99606.77;121336;1141;104233;-74
2021/01/13 04:41:08;;;;;;;45.30;20.90;;;;;;;-1.01;73.37;99599.72;121698;1141;104423;-75
2021/01/13 04:43:51;;;;;;;40.90;18.30;;;;;;;-1.02;73.87;99603.11;121640;1141;104487;-74
2021/01/13 04:46:32;;;;;;;42.80;19.97;;;;;;;-1.02;73.50;99600.53;121556;1141;104972;-74
2021/01/13 04:49:08;;;;;;;44.97;21.50;;;;;;;-1.01;73.05;99594.57;121715;1140;104464;-73
2021/01/13 04:51:39;;;;;;;44.50;21.37;;;;;;;-0.96;73.52;99580.34;121685;1141;104355;-73
2021/01/13 04:54:11;;;;;;;46.00;20.80;;;;;;;-0.94;73.96;99579.63;121721;1141;104783;-75
2021/01/13 04:57:17;;;;;;;45.03;21.23;;;;;;;-0.94;73.51;99583.90;121753;1140;104460;-75
2021/01/13 05:00:10;;;;;;;49.47;21.53;;;;;;;-0.92;73.14;99584.88;121684;1141;104793;-73
2021/01/13 05:03:05;;;;;;;41.03;19.80;;;;;;;-0.90;73.49;99583.33;121697;1141;104375;-73
2021/01/13 05:05:46;;;;;;;48.00;20.35;;;;;;;-0.85;73.28;99581.05;121642;1141;104500;-74
2021/01/13 05:08:29;;;;;;;43.27;20.43;;;;;;;-0.83;73.44;99577.77;121712;1140;104357;-74
2021/01/13 05:11:11;;;;;;;38.83;17.50;;;;;;;-0.83;72.84;99584.61;121677;1141;104354;-76
2021/01/13 05:13:47;;;;;;;38.90;16.83;;;;;;;-0.85;73.05;99583.63;121707;1140;104527;-75
2021/01/13 05:16:20;;;;;;;35.70;16.47;;;;;;;-0.89;73.89;99581.63;121654;1141;104464;-73
2021/01/13 05:18:56;;;;;;;39.18;17.98;;;;;;;-0.91;73.66;99582.41;121725;1141;104436;-74
2021/01/13 05:21:27;;;;;;;36.43;16.03;;;;;;;-0.94;73.87;99571.02;121627;1141;104348;-74
2021/01/13 05:23:58;;;;;;;35.90;16.20;;;;;;;-0.97;73.86;99581.13;121496;1141;104339;-75
2021/01/13 05:26:29;;;;;;;35.17;16.33;;;;;;;-1.01;73.43;99574.88;121589;1140;104476;-76
2021/01/13 05:29:31;;;;;;;38.97;16.33;;;;;;;-1.03;73.75;99571.30;121587;1139;104342;-76
2021/01/13 05:32:03;;;;;;;38.63;17.53;;;;;;;-1.06;72.92;99577.93;121376;1141;104557;-76
2021/01/13 05:34:34;;;;;;;37.77;16.50;;;;;;;-1.06;74.19;99585.66;121373;1141;104435;-77
2021/01/13 07:24:49;;;;;;;44.23;19.43;;;;;;;-0.87;73.69;99573.23;121720;1140;104349;-71
2021/01/13 07:27:26;;;;;;;42.70;19.03;;;;;;;-0.79;73.12;99576.30;121221;1141;104357;-74
2021/01/13 07:29:57;;;;;;;43.80;19.20;;;;;;;-0.74;73.73;99580.06;121113;1141;104436;-73
2021/01/13 07:32:39;;;;;;;37.93;17.87;;;;;;;-0.73;73.19;99582.75;121329;1141;104442;-73
2021/01/13 07:35:13;;;;;;;44.97;20.13;;;;;;;-0.73;73.97;99572.44;121426;1141;104366;-74
2021/01/13 07:37:53;;;;;;;41.42;18.70;;;;;;;-0.69;74.04;99577.80;121605;1141;104346;-73
2021/01/13 07:40:36;;;;;;;40.57;18.37;;;;;;;-0.67;73.37;99581.35;121352;1140;104442;-77
2021/01/13 07:43:09;;;;;;;42.33;19.23;;;;;;;-0.61;73.26;99584.33;121196;1141;104394;-77
2021/01/13 07:45:44;;;;;;;43.63;19.80;;;;;;;-0.58;73.33;99585.45;123126;1139;104352;-74
2021/01/13 07:48:48;;;;;;;40.67;18.47;;;;;;;-0.51;73.60;99573.84;121451;1141;104386;-76
2021/01/13 07:51:28;;;;;;;48.13;20.80;;;;;;;-0.47;73.28;99580.95;121126;1144;104380;-78
2021/01/13 07:54:07;;;;;;;71.83;31.50;;;;;;;-0.42;72.90;99581.25;121180;1144;104466;-77
2021/01/13 07:56:41;;;;;;;66.00;30.80;;;;;;;-0.40;74.00;99572.84;121098;1143;104618;-77
2021/01/13 07:59:31;;;;;;;;;;;;;;;-0.31;73.71;99569.97;121042;1143;104425;-76
2021/01/13 08:02:30;;;;;;;42.15;19.40;;;;;;;-0.23;73.40;99578.19;120957;1144;104537;-78
2021/01/13 08:05:25;;;;;;;42.77;20.43;;;;;;;-0.14;73.96;99570.12;121035;1144;104396;-76
2021/01/13 08:08:05;;;;;;;;;;;;;;;-0.10;73.36;99569.53;120997;1144;104513;-76
2021/01/13 08:10:38;;;;;;;42.50;20.30;;;;;;;-0.08;73.50;99574.00;121647;1142;103368;-76
2021/01/13 08:13:38;;;;;;;47.73;21.83;;;;;;;-0.04;73.02;99575.08;122991;1143;102092;-75
2021/01/13 08:16:35;;;;;;;46.25;20.35;;;;;;;0.06;73.11;99573.95;121113;1144;104645;-76
2021/01/13 08:19:32;;;;;;;38.17;17.10;;;;;;;0.14;73.58;99570.16;120996;1144;104481;-76
2021/01/13 08:22:04;;;;;;;40.33;19.87;;;;;;;0.23;73.04;99573.31;121098;1144;104407;-77
2021/01/13 08:24:40;;;;;;;42.87;18.13;;;;;;;0.30;73.31;99582.34;120951;1145;104533;-78
2021/01/13 08:27:14;;;;;;;40.40;19.43;;;;;;;0.32;72.77;99584.20;121413;1143;104803;-77
2021/01/13 08:30:00;;;;;;;42.43;18.07;;;;;;;0.33;73.30;99570.51;121099;1144;104418;-77
2021/01/13 08:32:42;;;;;;;42.13;19.03;;;;;;;0.36;72.83;99564.66;121876;1142;104364;-75
2021/01/13 08:35:13;;;;;;;43.90;19.33;;;;;;;0.42;72.86;99572.77;121126;1143;104403;-76
2021/01/13 08:37:45;;;;;;;36.43;17.47;;;;;;;0.45;72.97;99564.30;122308;1142;102098;-77
2021/01/13 08:40:28;;;;;;;35.80;17.20;;;;;;;0.51;73.00;99570.75;121294;1143;104449;-75
2021/01/13 08:43:15;;;;;;;37.85;17.17;;;;;;;0.62;72.99;99567.91;120974;1143;105065;-76
2021/01/13 08:45:47;;;;;;;39.03;19.10;;;;;;;0.66;73.00;99564.72;121126;1144;104607;-78
2021/01/13 08:48:19;;;;;;;40.83;19.23;;;;;;;0.68;72.92;99565.70;121054;1144;104457;-78
2021/01/13 08:51:12;;;;;;;42.33;18.50;;;;;;;0.75;72.94;99561.78;121229;1142;104534;-79
2021/01/13 08:53:42;;;;;;;41.25;18.70;;;;;;;0.88;73.01;99546.22;121463;1143;104662;-80
2021/01/13 08:56:12;;;;;;;41.27;19.30;;;;;;;0.95;73.08;99545.80;120976;1144;104463;-78
2021/01/13 08:59:04;;;;;;;46.13;21.33;;;;;;;0.99;73.01;99539.98;120852;1143;104507;-80
2021/01/13 09:01:39;;;;;;;50.43;22.07;;;;;;;1.12;73.07;99530.36;122365;1142;104336;-79
2021/01/13 09:04:23;;;;;;;41.28;19.80;;;;;;;1.14;72.30;99534.82;121208;1143;104848;-78
2021/01/13 09:07:13;;;;;;;38.20;18.83;;;;;;;1.21;72.29;99528.30;121197;1143;104386;-80
2021/01/13 09:09:54;;;;;;;39.83;18.17;;;;;;;1.29;73.11;99515.81;121262;1143;104466;-77
2021/01/13 09:12:38;;;;;;;42.47;19.27;;;;;;;1.32;72.65;99503.95;121219;1142;104543;-78
2021/01/13 09:15:27;;;;;;;41.00;18.82;;;;;;;1.29;72.33;99500.31;121261;1144;104516;-78
2021/01/13 09:18:00;;;;;;;43.03;19.80;;;;;;;1.29;72.81;99503.77;121445;1141;104358;-79
2021/01/13 09:20:35;;;;;;;47.83;21.60;;;;;;;1.30;72.71;99500.39;121528;1141;104372;-77
2021/01/13 09:23:06;;;;;;;46.00;20.93;;;;;;;1.32;72.62;99493.61;121524;1141;104377;-79
2021/01/13 09:25:53;;;;;;;44.40;21.23;;;;;;;1.31;72.56;99494.44;121576;1141;104468;-79
2021/01/13 09:28:31;;;;;;;49.47;20.70;;;;;;;1.37;72.51;99489.61;121539;1141;104505;-77
2021/01/13 09:31:14;;;;;;;42.73;19.70;;;;;;;1.42;72.27;99488.16;121455;1141;104398;-78
2021/01/13 09:33:52;;;;;;;35.93;16.63;;;;;;;1.53;72.49;99485.30;121322;1141;104402;-76
2021/01/13 09:36:28;;;;;;;44.63;19.43;;;;;;;1.54;72.60;99487.05;121596;1141;104339;-75
2021/01/13 09:39:13;;;;;;;41.80;20.20;;;;;;;1.49;72.29;99476.45;121513;1140;104352;-75
2021/01/13 09:41:55;;;;;;;46.83;21.27;;;;;;;1.44;72.55;99472.73;121273;1141;104452;-81
2021/01/13 09:44:30;;;;;;;44.63;20.80;;;;;;;1.42;72.32;99472.66;121626;1141;104457;-80
2021/01/13 09:47:21;;;;;;;49.63;22.17;;;;;;;1.47;72.18;99477.20;121679;1140;104404;-79
2021/01/13 09:49:56;;;;;;;44.30;19.90;;;;;;;1.49;72.26;99475.58;121325;1141;104455;-79
2021/01/13 09:52:39;;;;;;;42.70;20.53;;;;;;;1.55;72.24;99474.20;121349;1140;104352;-79
2021/01/13 09:55:21;;;;;;;45.33;20.83;;;;;;;1.73;72.55;99465.67;121486;1140;104345;-81
2021/01/13 09:58:28;;;;;;;50.20;19.73;;;;;;;1.94;72.66;99460.77;121392;1141;104358;-81
2021/01/13 10:01:44;;;;;;;44.67;19.73;;;;;;;2.11;71.96;99470.31;121263;1141;104451;-78
2021/01/13 10:04:32;;;;;;;41.93;18.80;;;;;;;2.18;71.97;99457.69;121245;1141;104404;-77
2021/01/13 10:07:22;;;;;;;33.67;15.47;;;;;;;2.21;71.22;99460.44;121165;1141;104547;-77
2021/01/13 10:10:02;;;;;;;38.07;17.37;;;;;;;2.12;71.42;99466.92;121118;1141;104681;-79
2021/01/13 10:12:52;;;;;;;35.00;16.43;;;;;;;2.13;71.72;99458.33;121225;1141;104508;-80
2021/01/13 10:15:43;;;;;;;33.60;15.70;;;;;;;2.15;71.99;99448.97;120987;1141;104505;-81
2021/01/13 10:18:14;;;;;;;34.73;15.43;;;;;;;2.20;71.32;99448.30;121013;1139;104382;-80
2021/01/13 10:20:59;;;;;;;36.67;14.93;;;;;;;2.14;71.32;99452.35;121105;1141;104523;-79
2021/01/13 10:23:40;;;;;;;33.67;15.27;;;;;;;2.03;71.61;99437.97;121359;1141;104361;-79
2021/01/13 10:26:21;;;;;;;38.10;15.33;;;;;;;2.06;71.48;99443.31;121134;1141;104415;-79
2021/01/13 10:29:13;;;;;;;28.67;12.33;;;;;;;2.04;71.13;99442.34;121546;1141;104367;-80
2021/01/13 10:31:43;;;;;;;30.43;13.27;;;;;;;2.02;71.38;99432.72;121050;1141;104401;-82
2021/01/13 10:34:27;;;;;;;34.77;14.27;;;;;;;1.96;71.18;99428.09;121595;1141;104380;-80
2021/01/13 10:36:56;;;;;;;34.07;15.07;;;;;;;1.95;71.40;99418.58;121462;1141;104371;-79
2021/01/13 10:39:46;;;;;;;32.27;14.70;;;;;;;1.96;71.38;99415.16;121335;1141;104360;-79
2021/01/13 10:42:28;;;;;;;35.33;15.70;;;;;;;1.90;71.40;99410.58;121635;1140;104436;-80
2021/01/13 10:45:25;;;;;;;36.20;15.80;;;;;;;1.89;71.84;99400.14;121788;1141;104345;-79
2021/01/13 10:48:04;;;;;;;36.10;16.17;;;;;;;1.96;71.53;99392.78;121500;1140;104335;-78
2021/01/13 10:50:45;;;;;;;34.47;16.37;;;;;;;2.10;71.97;99387.41;121283;1141;104449;-79
2021/01/13 10:53:16;;;;;;;36.37;15.77;;;;;;;2.18;71.74;99392.98;121343;1141;104373;-78
2021/01/13 10:55:55;;;;;;;35.87;17.00;;;;;;;2.18;71.48;99386.09;121337;1141;104455;-79
2021/01/13 10:58:41;;;;;;;39.73;17.33;;;;;;;2.23;71.24;99379.48;121473;1141;104368;-80
2021/01/13 11:01:15;;;;;;;39.30;17.00;;;;;;;2.29;71.22;99377.20;121398;1141;104344;-78
2021/01/13 11:03:45;;;;;;;33.37;16.93;;;;;;;2.29;71.02;99376.30;122823;1140;103680;-82
2021/01/13 11:06:24;;;;;;;35.67;17.10;;;;;;;2.34;71.01;99367.95;122723;1140;102183;-81
2021/01/13 11:08:54;;;;;;;38.23;17.03;;;;;;;2.41;71.61;99361.37;122590;1146;102006;-81
2021/01/13 11:11:24;;;;;;;33.03;15.63;;;;;;;2.41;71.08;99361.37;122667;1140;104476;-80
2021/01/13 11:13:53;;;;;;;34.07;15.60;;;;;;;2.41;70.83;99358.78;121289;1141;104368;-80
2021/01/13 11:16:23;;;;;;;39.10;16.60;;;;;;;2.43;70.62;99359.77;121276;1140;104425;-82
2021/01/13 11:19:08;;;;;;;32.93;15.70;;;;;;;2.42;71.14;99357.98;120999;1141;104383;-79
2021/01/13 11:21:43;;;;;;;33.87;15.53;;;;;;;2.34;71.46;99367.95;120857;1141;104387;-81
2021/01/13 11:24:14;;;;;;;31.57;15.47;;;;;;;2.30;71.00;99372.91;120980;1141;104460;-77
2021/01/13 11:26:46;;;;;;;33.83;15.23;;;;;;;2.27;70.56;99377.92;120964;1143;104646;-78
2021/01/13 11:32:18;;;;;;;37.53;17.33;;;;;;;2.34;70.77;99377.44;121488;1141;105000;-78
2021/01/13 11:34:53;;;;;;;39.27;16.43;;;;;;;2.36;70.62;99375.80;121041;1141;104367;-79
2021/01/13 11:37:51;;;;;;;37.50;17.83;;;;;;;2.39;70.53;99383.72;121048;1141;105018;-79
2021/01/13 11:41:12;;;;;;;38.03;17.60;;;;;;;2.38;70.21;99375.87;121094;1141;104420;-79
2021/01/13 11:44:03;;;;;;;37.97;18.00;;;;;;;2.41;70.88;99379.50;120993;1141;104553;-77
2021/01/13 11:46:40;;;;;;;42.70;18.20;;;;;;;2.43;70.59;99382.17;121107;1141;104397;-80
2021/01/13 11:49:25;;;;;;;39.23;17.43;;;;;;;2.45;70.79;99383.16;121224;1141;104362;-78
2021/01/13 11:51:59;;;;;;;35.47;16.30;;;;;;;2.48;70.81;99381.59;121378;1141;104335;-79
2021/01/13 11:54:34;;;;;;;37.83;17.00;;;;;;;2.47;69.98;99373.75;121267;1141;104360;-80
2021/01/13 11:57:20;;;;;;;39.23;17.13;;;;;;;2.47;70.50;99377.22;121206;1141;104401;-77
2021/01/13 11:59:52;;;;;;;40.05;16.85;;;;;;;2.51;70.86;99379.16;121048;1141;104460;-78
2021/01/13 12:02:25;;;;;;;41.03;17.30;;;;;;;2.57;70.98;99375.09;121344;1141;104447;-79
2021/01/13 12:04:55;;;;;;;39.20;16.40;;;;;;;2.60;70.57;99376.15;121270;1141;104383;-79
2021/01/13 12:07:24;;;;;;;35.63;15.57;;;;;;;2.68;71.20;99373.91;121154;1141;104433;-79
2021/01/13 12:10:08;;;;;;;36.87;15.87;;;;;;;2.75;70.99;99368.22;121175;1141;104364;-81
2021/01/13 12:12:38;;;;;;;33.53;13.57;;;;;;;2.81;70.01;99370.23;121012;1141;104375;-80
2021/01/13 12:15:13;;;;;;;38.10;15.90;;;;;;;2.83;70.77;99381.55;121465;1141;104562;-81
2021/01/13 12:17:53;;;;;;;33.53;14.70;;;;;;;2.83;70.02;99377.24;121709;1141;104357;-77
2021/01/13 12:20:34;;;;;;;33.80;14.33;;;;;;;2.81;70.47;99373.70;121423;1141;104524;-78
2021/01/13 12:23:19;;;;;;;34.03;16.10;;;;;;;2.76;70.60;99374.28;121401;1139;104632;-78
2021/01/13 12:26:13;;;;;;;35.07;15.70;;;;;;;2.72;70.55;99375.84;121268;1141;104438;-81
2021/01/13 12:28:47;;;;;;;34.00;14.77;;;;;;;2.69;69.51;99367.92;121808;1141;103725;-78
2021/01/13 12:31:25;;;;;;;35.07;15.93;;;;;;;2.66;70.14;99373.83;121389;1141;104344;-77
2021/01/13 12:34:03;;;;;;;36.53;16.40;;;;;;;2.63;70.57;99377.98;121383;1141;104339;-76
2021/01/13 12:36:52;;;;;;;44.97;19.63;;;;;;;2.59;69.73;99374.36;121419;1141;104339;-75
2021/01/13 12:39:28;;;;;;;39.93;17.23;;;;;;;2.50;70.44;99382.55;121202;1142;104531;-76
2021/01/13 12:41:59;;;;;;;40.13;17.67;;;;;;;2.44;69.76;99379.66;121156;1144;104364;-77
2021/01/13 12:44:40;;;;;;;38.73;16.30;;;;;;;2.38;69.82;99381.94;120920;1144;104542;-78
2021/01/13 12:47:25;;;;;;;36.17;15.60;;;;;;;2.31;69.97;99388.52;121234;1144;104516;-78
2021/01/13 12:49:56;;;;;;;40.57;18.27;;;;;;;2.23;70.48;99396.69;121042;1144;104364;-76
2021/01/13 12:52:26;;;;;;;38.70;17.20;;;;;;;2.21;70.22;99394.02;120943;1142;104544;-78
2021/01/13 12:54:58;;;;;;;37.87;18.37;;;;;;;2.18;70.04;99395.58;121087;1144;104410;-75
2021/01/13 12:57:35;;;;;;;39.13;18.00;;;;;;;2.14;70.08;99390.23;120975;1144;104561;-78
2021/01/13 13:00:09;;;;;;;37.75;17.30;;;;;;;2.12;70.01;99396.14;121001;1144;104396;-78
2021/01/13 13:02:41;;;;;;;37.83;17.53;;;;;;;2.09;70.12;99388.25;121699;1144;104526;-78
2021/01/13 13:05:14;;;;;;;35.50;16.10;;;;;;;2.06;70.30;99388.97;121067;1144;104367;-77
2021/01/13 13:07:44;;;;;;;36.53;15.53;;;;;;;2.05;69.91;99401.83;121692;1144;102850;-79
2021/01/13 13:10:18;;;;;;;42.80;19.00;;;;;;;2.03;69.92;99387.92;121111;1144;104412;-81
2021/01/13 13:12:51;;;;;;;39.25;17.80;;;;;;;1.99;69.85;99392.03;121172;1144;104528;-80
2021/01/13 13:15:23;;;;;;;38.17;16.93;;;;;;;2.00;70.14;99399.00;121136;1144;104663;-80
2021/01/13 13:17:52;;;;;;;39.77;18.43;;;;;;;1.96;70.48;99397.95;120908;1144;104592;-78
2021/01/13 13:20:25;;;;;;;43.27;18.30;;;;;;;1.94;70.14;99393.50;121075;1144;104374;-77
2021/01/13 13:22:55;;;;;;;41.13;18.50;;;;;;;1.91;70.11;99401.10;121141;1144;104540;-78
2021/01/13 13:25:34;;;;;;;39.75;18.90;;;;;;;1.86;69.88;99399.98;121042;1143;104524;-77
2021/01/13 13:28:07;;;;;;;39.90;17.30;;;;;;;1.82;70.02;99410.97;121081;1143;104360;-77
2021/01/13 13:30:37;;;;;;;39.47;17.93;;;;;;;1.80;70.11;99401.41;121035;1143;104439;-80
2021/01/13 13:33:14;;;;;;;42.47;18.73;;;;;;;1.77;70.43;99406.42;121116;1143;104537;-81
2021/01/13 13:35:43;;;;;;;40.50;17.30;;;;;;;1.73;70.64;99401.92;121098;1144;104613;-78
2021/01/13 13:38:12;;;;;;;37.07;17.47;;;;;;;1.69;70.46;99396.50;121035;1144;104617;-78
2021/01/13 13:40:42;;;;;;;40.83;17.70;;;;;;;1.66;70.46;99404.97;121025;1143;104518;-76
2021/01/13 13:43:15;;;;;;;34.60;16.00;;;;;;;1.63;69.96;99411.69;120956;1144;104437;-76